sensor_id;sensor_type;location;lat;lon;timestamp;P1;durP1;ratioP1;P2;durP2;ratioP2
20734;SDS011;10528;52.124;5.196;2022-12-31T00:00:06;2.70;;;1.13;;
20734;SDS011;10528;52.124;5.196;2022-12-31T00:02:34;1.60;;;1.20;;
20734;SDS011;10528;52.124;5.196;2022-12-31T00:05:01;2.00;;;1.00;;
20734;SDS011;10528;52.124;5.196;2022-12-31T00:07:29;3.65;;;1.30;;
20734;SDS011;10528;52.124;5.196;2022-12-31T00:09:56;2.65;;;1.35;;
20734;SDS011;10528;52.124;5.196;2022-12-31T00:12:23;3.03;;;1.58;;
20734;SDS011;10528;52.124;5.196;2022-12-31T00:14:50;2.53;;;1.30;;
20734;SDS011;10528;52.124;5.196;2022-12-31T00:17:17;3.13;;;1.40;;
20734;SDS011;10528;52.124;5.196;2022-12-31T00:19:44;3.92;;;1.73;;
20734;SDS011;10528;52.124;5.196;2022-12-31T00:22:11;3.13;;;1.70;;
20734;SDS011;10528;52.124;5.196;2022-12-31T00:24:37;1.88;;;1.50;;
20734;SDS011;10528;52.124;5.196;2022-12-31T00:27:04;4.85;;;2.00;;
20734;SDS011;10528;52.124;5.196;2022-12-31T00:29:31;2.55;;;1.85;;
20734;SDS011;10528;52.124;5.196;2022-12-31T00:31:58;2.88;;;1.85;;
20734;SDS011;10528;52.124;5.196;2022-12-31T00:34:25;3.85;;;2.35;;
20734;SDS011;10528;52.124;5.196;2022-12-31T00:36:52;4.28;;;2.22;;
20734;SDS011;10528;52.124;5.196;2022-12-31T00:39:19;3.25;;;2.58;;
20734;SDS011;10528;52.124;5.196;2022-12-31T00:41:46;3.97;;;2.90;;
20734;SDS011;10528;52.124;5.196;2022-12-31T00:44:13;3.33;;;2.78;;
20734;SDS011;10528;52.124;5.196;2022-12-31T00:46:40;4.93;;;2.63;;
20734;SDS011;10528;52.124;5.196;2022-12-31T00:49:06;4.53;;;2.60;;
20734;SDS011;10528;52.124;5.196;2022-12-31T00:51:34;5.80;;;2.45;;
20734;SDS011;10528;52.124;5.196;2022-12-31T00:54:01;5.57;;;2.70;;
20734;SDS011;10528;52.124;5.196;2022-12-31T00:56:28;4.22;;;2.50;;
20734;SDS011;10528;52.124;5.196;2022-12-31T00:58:57;6.35;;;2.42;;
20734;SDS011;10528;52.124;5.196;2022-12-31T01:01:26;3.47;;;1.90;;
20734;SDS011;10528;52.124;5.196;2022-12-31T01:03:58;2.83;;;1.80;;
20734;SDS011;10528;52.124;5.196;2022-12-31T01:06:31;3.33;;;1.35;;
20734;SDS011;10528;52.124;5.196;2022-12-31T01:08:59;2.65;;;1.30;;
20734;SDS011;10528;52.124;5.196;2022-12-31T01:11:26;3.20;;;1.35;;
20734;SDS011;10528;52.124;5.196;2022-12-31T01:14:00;4.18;;;1.10;;
20734;SDS011;10528;52.124;5.196;2022-12-31T01:16:49;4.95;;;1.15;;
20734;SDS011;10528;52.124;5.196;2022-12-31T01:19:22;4.00;;;1.38;;
20734;SDS011;10528;52.124;5.196;2022-12-31T01:21:53;3.40;;;1.10;;
20734;SDS011;10528;52.124;5.196;2022-12-31T01:24:21;4.13;;;1.10;;
20734;SDS011;10528;52.124;5.196;2022-12-31T01:26:48;4.32;;;1.38;;
20734;SDS011;10528;52.124;5.196;2022-12-31T01:29:16;3.67;;;1.17;;
20734;SDS011;10528;52.124;5.196;2022-12-31T01:31:43;4.68;;;1.40;;
20734;SDS011;10528;52.124;5.196;2022-12-31T01:34:10;4.05;;;1.25;;
20734;SDS011;10528;52.124;5.196;2022-12-31T01:36:37;4.13;;;1.17;;
20734;SDS011;10528;52.124;5.196;2022-12-31T01:39:05;3.42;;;1.30;;
20734;SDS011;10528;52.124;5.196;2022-12-31T01:41:35;4.07;;;1.13;;
20734;SDS011;10528;52.124;5.196;2022-12-31T01:46:39;3.90;;;1.00;;
20734;SDS011;10528;52.124;5.196;2022-12-31T01:49:24;3.67;;;1.10;;
20734;SDS011;10528;52.124;5.196;2022-12-31T01:52:03;5.25;;;1.20;;
20734;SDS011;10528;52.124;5.196;2022-12-31T01:54:54;5.63;;;1.23;;
20734;SDS011;10528;52.124;5.196;2022-12-31T01:57:39;4.55;;;1.00;;
20734;SDS011;10528;52.124;5.196;2022-12-31T02:00:09;4.40;;;1.25;;
20734;SDS011;10528;52.124;5.196;2022-12-31T02:02:36;4.97;;;0.90;;
20734;SDS011;10528;52.124;5.196;2022-12-31T02:05:05;2.97;;;1.00;;
20734;SDS011;10528;52.124;5.196;2022-12-31T02:07:54;4.20;;;1.60;;
20734;SDS011;10528;52.124;5.196;2022-12-31T02:10:22;4.75;;;1.30;;
20734;SDS011;10528;52.124;5.196;2022-12-31T02:12:49;3.97;;;1.23;;
20734;SDS011;10528;52.124;5.196;2022-12-31T02:15:18;8.10;;;1.80;;
20734;SDS011;10528;52.124;5.196;2022-12-31T02:18:16;4.60;;;1.58;;
20734;SDS011;10528;52.124;5.196;2022-12-31T02:26:40;3.80;;;1.50;;
20734;SDS011;10528;52.124;5.196;2022-12-31T02:32:35;3.33;;;1.17;;
20734;SDS011;10528;52.124;5.196;2022-12-31T02:38:24;3.88;;;1.20;;
20734;SDS011;10528;52.124;5.196;2022-12-31T02:40:58;4.00;;;1.10;;
20734;SDS011;10528;52.124;5.196;2022-12-31T02:43:26;3.20;;;0.85;;
20734;SDS011;10528;52.124;5.196;2022-12-31T02:46:07;3.20;;;0.93;;
20734;SDS011;10528;52.124;5.196;2022-12-31T02:52:41;3.38;;;0.80;;
20734;SDS011;10528;52.124;5.196;2022-12-31T02:56:13;3.22;;;0.60;;
20734;SDS011;10528;52.124;5.196;2022-12-31T02:58:56;3.85;;;0.70;;
20734;SDS011;10528;52.124;5.196;2022-12-31T03:01:52;5.32;;;0.75;;
20734;SDS011;10528;52.124;5.196;2022-12-31T03:04:53;5.40;;;1.08;;
20734;SDS011;10528;52.124;5.196;2022-12-31T03:07:22;3.85;;;1.15;;
20734;SDS011;10528;52.124;5.196;2022-12-31T03:09:55;3.63;;;0.82;;
20734;SDS011;10528;52.124;5.196;2022-12-31T03:12:27;4.28;;;0.98;;
20734;SDS011;10528;52.124;5.196;2022-12-31T03:15:22;2.53;;;0.93;;
20734;SDS011;10528;52.124;5.196;2022-12-31T03:17:57;2.42;;;0.80;;
20734;SDS011;10528;52.124;5.196;2022-12-31T03:26:30;2.83;;;0.85;;
20734;SDS011;10528;52.124;5.196;2022-12-31T03:28:56;1.63;;;0.70;;
20734;SDS011;10528;52.124;5.196;2022-12-31T03:31:23;3.95;;;0.95;;
20734;SDS011;10528;52.124;5.196;2022-12-31T03:33:50;2.70;;;0.80;;
20734;SDS011;10528;52.124;5.196;2022-12-31T03:36:17;3.55;;;0.93;;
20734;SDS011;10528;52.124;5.196;2022-12-31T03:38:44;2.35;;;0.70;;
20734;SDS011;10528;52.124;5.196;2022-12-31T03:41:17;3.92;;;0.95;;
20734;SDS011;10528;52.124;5.196;2022-12-31T03:43:44;2.45;;;0.88;;
20734;SDS011;10528;52.124;5.196;2022-12-31T03:46:11;2.45;;;0.70;;
20734;SDS011;10528;52.124;5.196;2022-12-31T03:48:38;2.08;;;0.93;;
20734;SDS011;10528;52.124;5.196;2022-12-31T03:51:05;3.42;;;1.00;;
20734;SDS011;10528;52.124;5.196;2022-12-31T03:53:32;2.55;;;0.73;;
20734;SDS011;10528;52.124;5.196;2022-12-31T03:56:00;2.03;;;0.82;;
20734;SDS011;10528;52.124;5.196;2022-12-31T03:58:27;3.45;;;0.73;;
20734;SDS011;10528;52.124;5.196;2022-12-31T04:00:54;4.60;;;1.10;;
20734;SDS011;10528;52.124;5.196;2022-12-31T04:03:21;2.80;;;1.08;;
20734;SDS011;10528;52.124;5.196;2022-12-31T04:05:54;4.63;;;0.90;;
20734;SDS011;10528;52.124;5.196;2022-12-31T04:08:21;2.55;;;0.80;;
20734;SDS011;10528;52.124;5.196;2022-12-31T04:10:49;3.70;;;0.77;;
20734;SDS011;10528;52.124;5.196;2022-12-31T04:13:16;4.05;;;1.02;;
20734;SDS011;10528;52.124;5.196;2022-12-31T04:15:43;1.35;;;0.68;;
20734;SDS011;10528;52.124;5.196;2022-12-31T04:18:09;2.10;;;0.73;;
20734;SDS011;10528;52.124;5.196;2022-12-31T04:20:36;4.65;;;0.77;;
20734;SDS011;10528;52.124;5.196;2022-12-31T04:23:03;1.95;;;0.77;;
20734;SDS011;10528;52.124;5.196;2022-12-31T04:25:30;3.03;;;0.77;;
20734;SDS011;10528;52.124;5.196;2022-12-31T04:27:57;2.15;;;0.70;;
20734;SDS011;10528;52.124;5.196;2022-12-31T04:30:24;2.28;;;0.70;;
20734;SDS011;10528;52.124;5.196;2022-12-31T04:32:51;2.75;;;0.90;;
20734;SDS011;10528;52.124;5.196;2022-12-31T04:35:17;2.33;;;0.70;;
20734;SDS011;10528;52.124;5.196;2022-12-31T04:37:44;1.92;;;1.02;;
20734;SDS011;10528;52.124;5.196;2022-12-31T04:40:11;1.42;;;0.90;;
20734;SDS011;10528;52.124;5.196;2022-12-31T04:42:38;2.03;;;0.90;;
20734;SDS011;10528;52.124;5.196;2022-12-31T04:45:05;5.18;;;1.38;;
20734;SDS011;10528;52.124;5.196;2022-12-31T04:47:33;3.30;;;1.38;;
20734;SDS011;10528;52.124;5.196;2022-12-31T04:50:01;2.75;;;1.23;;
20734;SDS011;10528;52.124;5.196;2022-12-31T04:52:29;2.53;;;1.00;;
20734;SDS011;10528;52.124;5.196;2022-12-31T04:55:02;2.35;;;1.13;;
20734;SDS011;10528;52.124;5.196;2022-12-31T04:57:29;2.75;;;1.63;;
20734;SDS011;10528;52.124;5.196;2022-12-31T04:59:56;2.35;;;1.40;;
20734;SDS011;10528;52.124;5.196;2022-12-31T05:02:23;2.35;;;1.50;;
20734;SDS011;10528;52.124;5.196;2022-12-31T05:04:50;2.45;;;1.70;;
20734;SDS011;10528;52.124;5.196;2022-12-31T05:07:17;3.15;;;1.80;;
20734;SDS011;10528;52.124;5.196;2022-12-31T05:09:44;2.63;;;1.70;;
20734;SDS011;10528;52.124;5.196;2022-12-31T05:12:10;3.08;;;1.88;;
20734;SDS011;10528;52.124;5.196;2022-12-31T05:14:37;2.25;;;1.83;;
20734;SDS011;10528;52.124;5.196;2022-12-31T05:17:04;2.75;;;1.95;;
20734;SDS011;10528;52.124;5.196;2022-12-31T05:19:31;2.88;;;2.20;;
20734;SDS011;10528;52.124;5.196;2022-12-31T05:21:58;4.07;;;2.40;;
20734;SDS011;10528;52.124;5.196;2022-12-31T05:24:43;4.22;;;2.70;;
20734;SDS011;10528;52.124;5.196;2022-12-31T05:27:10;3.17;;;2.58;;
20734;SDS011;10528;52.124;5.196;2022-12-31T05:29:36;6.07;;;2.75;;
20734;SDS011;10528;52.124;5.196;2022-12-31T05:32:03;3.30;;;2.63;;
20734;SDS011;10528;52.124;5.196;2022-12-31T05:34:30;3.75;;;2.78;;
20734;SDS011;10528;52.124;5.196;2022-12-31T05:36:57;4.45;;;2.58;;
20734;SDS011;10528;52.124;5.196;2022-12-31T05:39:24;3.47;;;2.53;;
20734;SDS011;10528;52.124;5.196;2022-12-31T05:41:50;2.47;;;2.03;;
20734;SDS011;10528;52.124;5.196;2022-12-31T05:44:17;3.28;;;2.40;;
20734;SDS011;10528;52.124;5.196;2022-12-31T05:46:45;2.67;;;2.00;;
20734;SDS011;10528;52.124;5.196;2022-12-31T05:49:12;3.03;;;2.20;;
20734;SDS011;10528;52.124;5.196;2022-12-31T05:51:39;4.03;;;1.90;;
20734;SDS011;10528;52.124;5.196;2022-12-31T05:54:06;2.22;;;1.80;;
20734;SDS011;10528;52.124;5.196;2022-12-31T05:56:35;2.08;;;1.67;;
20734;SDS011;10528;52.124;5.196;2022-12-31T05:59:02;2.97;;;1.60;;
20734;SDS011;10528;52.124;5.196;2022-12-31T06:01:29;1.85;;;1.52;;
20734;SDS011;10528;52.124;5.196;2022-12-31T06:03:56;1.98;;;1.40;;
20734;SDS011;10528;52.124;5.196;2022-12-31T06:06:22;1.73;;;1.38;;
20734;SDS011;10528;52.124;5.196;2022-12-31T06:08:50;3.03;;;1.42;;
20734;SDS011;10528;52.124;5.196;2022-12-31T06:11:17;2.17;;;1.15;;
20734;SDS011;10528;52.124;5.196;2022-12-31T06:13:44;1.73;;;1.30;;
20734;SDS011;10528;52.124;5.196;2022-12-31T06:16:11;1.45;;;1.30;;
20734;SDS011;10528;52.124;5.196;2022-12-31T06:18:39;2.03;;;1.10;;
20734;SDS011;10528;52.124;5.196;2022-12-31T06:21:06;0.95;;;0.85;;
20734;SDS011;10528;52.124;5.196;2022-12-31T06:23:33;1.27;;;0.90;;
20734;SDS011;10528;52.124;5.196;2022-12-31T06:26:01;1.17;;;0.90;;
20734;SDS011;10528;52.124;5.196;2022-12-31T06:28:29;1.25;;;1.15;;
20734;SDS011;10528;52.124;5.196;2022-12-31T06:31:00;1.10;;;1.00;;
20734;SDS011;10528;52.124;5.196;2022-12-31T06:33:29;1.65;;;1.23;;
20734;SDS011;10528;52.124;5.196;2022-12-31T06:35:57;1.70;;;1.40;;
20734;SDS011;10528;52.124;5.196;2022-12-31T06:38:26;2.17;;;1.73;;
20734;SDS011;10528;52.124;5.196;2022-12-31T06:40:56;2.35;;;1.98;;
20734;SDS011;10528;52.124;5.196;2022-12-31T06:43:23;3.30;;;2.58;;
20734;SDS011;10528;52.124;5.196;2022-12-31T06:45:50;4.13;;;3.28;;
20734;SDS011;10528;52.124;5.196;2022-12-31T06:48:17;4.55;;;3.20;;
20734;SDS011;10528;52.124;5.196;2022-12-31T06:50:43;4.28;;;3.47;;
20734;SDS011;10528;52.124;5.196;2022-12-31T06:53:10;4.10;;;3.63;;
20734;SDS011;10528;52.124;5.196;2022-12-31T06:55:37;3.95;;;3.17;;
20734;SDS011;10528;52.124;5.196;2022-12-31T06:58:04;4.88;;;3.72;;
20734;SDS011;10528;52.124;5.196;2022-12-31T07:00:31;6.25;;;3.50;;
20734;SDS011;10528;52.124;5.196;2022-12-31T07:05:41;4.03;;;2.70;;
20734;SDS011;10528;52.124;5.196;2022-12-31T07:11:25;1.92;;;1.52;;
20734;SDS011;10528;52.124;5.196;2022-12-31T07:17:23;1.45;;;0.85;;
20734;SDS011;10528;52.124;5.196;2022-12-31T07:19:55;1.33;;;0.68;;
20734;SDS011;10528;52.124;5.196;2022-12-31T07:22:35;1.00;;;0.60;;
20734;SDS011;10528;52.124;5.196;2022-12-31T07:25:03;0.75;;;0.50;;
20734;SDS011;10528;52.124;5.196;2022-12-31T07:30:30;0.25;;;0.20;;
20734;SDS011;10528;52.124;5.196;2022-12-31T07:33:42;0.57;;;0.40;;
20734;SDS011;10528;52.124;5.196;2022-12-31T07:42:51;0.85;;;0.38;;
20734;SDS011;10528;52.124;5.196;2022-12-31T07:48:40;0.30;;;0.20;;
20734;SDS011;10528;52.124;5.196;2022-12-31T07:51:08;1.02;;;0.47;;
20734;SDS011;10528;52.124;5.196;2022-12-31T07:53:38;0.85;;;0.30;;
20734;SDS011;10528;52.124;5.196;2022-12-31T07:56:05;1.02;;;0.35;;
20734;SDS011;10528;52.124;5.196;2022-12-31T08:01:51;0.50;;;0.30;;
20734;SDS011;10528;52.124;5.196;2022-12-31T08:05:28;0.80;;;0.40;;
20734;SDS011;10528;52.124;5.196;2022-12-31T08:08:10;1.25;;;0.50;;
20734;SDS011;10528;52.124;5.196;2022-12-31T08:11:10;1.25;;;0.30;;
20734;SDS011;10528;52.124;5.196;2022-12-31T08:13:42;0.47;;;0.30;;
20734;SDS011;10528;52.124;5.196;2022-12-31T08:16:10;1.45;;;0.35;;
20734;SDS011;10528;52.124;5.196;2022-12-31T08:18:40;0.50;;;0.43;;
20734;SDS011;10528;52.124;5.196;2022-12-31T08:21:30;2.15;;;0.80;;
20734;SDS011;10528;52.124;5.196;2022-12-31T08:24:38;1.02;;;0.50;;
20734;SDS011;10528;52.124;5.196;2022-12-31T08:27:44;2.88;;;0.55;;
20734;SDS011;10528;52.124;5.196;2022-12-31T08:31:00;0.65;;;0.40;;
20734;SDS011;10528;52.124;5.196;2022-12-31T08:40:01;1.25;;;0.50;;
20734;SDS011;10528;52.124;5.196;2022-12-31T08:45:50;2.00;;;0.68;;
20734;SDS011;10528;52.124;5.196;2022-12-31T08:48:28;1.02;;;0.40;;
20734;SDS011;10528;52.124;5.196;2022-12-31T08:51:27;2.03;;;0.73;;
20734;SDS011;10528;52.124;5.196;2022-12-31T08:53:54;1.98;;;0.68;;
20734;SDS011;10528;52.124;5.196;2022-12-31T08:56:45;2.00;;;0.55;;
20734;SDS011;10528;52.124;5.196;2022-12-31T08:59:23;0.93;;;0.38;;
20734;SDS011;10528;52.124;5.196;2022-12-31T09:02:23;1.90;;;0.50;;
20734;SDS011;10528;52.124;5.196;2022-12-31T09:10:58;2.00;;;0.55;;
20734;SDS011;10528;52.124;5.196;2022-12-31T09:13:39;1.27;;;0.40;;
20734;SDS011;10528;52.124;5.196;2022-12-31T09:16:31;1.33;;;0.63;;
20734;SDS011;10528;52.124;5.196;2022-12-31T09:19:19;2.03;;;0.50;;
20734;SDS011;10528;52.124;5.196;2022-12-31T09:21:45;2.63;;;0.77;;
20734;SDS011;10528;52.124;5.196;2022-12-31T09:24:13;3.78;;;0.65;;
20734;SDS011;10528;52.124;5.196;2022-12-31T09:29:27;2.97;;;0.65;;
20734;SDS011;10528;52.124;5.196;2022-12-31T09:58:44;13.82;;;1.35;;
20734;SDS011;10528;52.124;5.196;2022-12-31T10:01:34;4.15;;;0.50;;
20734;SDS011;10528;52.124;5.196;2022-12-31T10:10:06;1.63;;;0.70;;
20734;SDS011;10528;52.124;5.196;2022-12-31T10:13:12;3.80;;;0.80;;
20734;SDS011;10528;52.124;5.196;2022-12-31T10:24:57;2.85;;;0.70;;
20734;SDS011;10528;52.124;5.196;2022-12-31T10:28:21;2.90;;;0.90;;
20734;SDS011;10528;52.124;5.196;2022-12-31T10:34:25;2.70;;;0.95;;
20734;SDS011;10528;52.124;5.196;2022-12-31T10:37:09;25.85;;;16.67;;
20734;SDS011;10528;52.124;5.196;2022-12-31T10:42:49;2.00;;;1.02;;
20734;SDS011;10528;52.124;5.196;2022-12-31T10:55:25;4.55;;;1.33;;
20734;SDS011;10528;52.124;5.196;2022-12-31T11:10:28;1.75;;;0.73;;
20734;SDS011;10528;52.124;5.196;2022-12-31T11:13:14;2.67;;;1.15;;
20734;SDS011;10528;52.124;5.196;2022-12-31T11:16:37;3.17;;;0.95;;
20734;SDS011;10528;52.124;5.196;2022-12-31T11:19:56;3.38;;;1.10;;
20734;SDS011;10528;52.124;5.196;2022-12-31T11:32:25;2.55;;;0.93;;
20734;SDS011;10528;52.124;5.196;2022-12-31T11:35:27;2.70;;;1.13;;
20734;SDS011;10528;52.124;5.196;2022-12-31T11:41:11;3.63;;;0.95;;
20734;SDS011;10528;52.124;5.196;2022-12-31T11:44:00;4.57;;;1.00;;
20734;SDS011;10528;52.124;5.196;2022-12-31T11:46:55;4.38;;;1.10;;
20734;SDS011;10528;52.124;5.196;2022-12-31T11:53:54;3.90;;;1.35;;
20734;SDS011;10528;52.124;5.196;2022-12-31T11:56:45;4.57;;;1.50;;
20734;SDS011;10528;52.124;5.196;2022-12-31T11:59:21;4.32;;;1.85;;
20734;SDS011;10528;52.124;5.196;2022-12-31T12:01:54;5.38;;;2.15;;
20734;SDS011;10528;52.124;5.196;2022-12-31T12:04:42;5.40;;;1.75;;
20734;SDS011;10528;52.124;5.196;2022-12-31T12:07:13;4.50;;;1.60;;
20734;SDS011;10528;52.124;5.196;2022-12-31T12:09:43;4.65;;;1.45;;
20734;SDS011;10528;52.124;5.196;2022-12-31T12:12:11;3.72;;;1.40;;
20734;SDS011;10528;52.124;5.196;2022-12-31T12:14:39;5.82;;;2.53;;
20734;SDS011;10528;52.124;5.196;2022-12-31T12:17:13;4.63;;;1.85;;
20734;SDS011;10528;52.124;5.196;2022-12-31T12:19:59;6.93;;;2.50;;
20734;SDS011;10528;52.124;5.196;2022-12-31T12:22:46;5.85;;;2.53;;
20734;SDS011;10528;52.124;5.196;2022-12-31T12:25:21;6.07;;;2.15;;
20734;SDS011;10528;52.124;5.196;2022-12-31T12:27:52;3.63;;;1.50;;
20734;SDS011;10528;52.124;5.196;2022-12-31T12:30:24;4.13;;;1.67;;
20734;SDS011;10528;52.124;5.196;2022-12-31T12:32:55;5.22;;;1.45;;
20734;SDS011;10528;52.124;5.196;2022-12-31T12:35:26;5.07;;;2.38;;
20734;SDS011;10528;52.124;5.196;2022-12-31T12:38:03;10.60;;;7.25;;
20734;SDS011;10528;52.124;5.196;2022-12-31T12:40:50;5.05;;;2.20;;
20734;SDS011;10528;52.124;5.196;2022-12-31T12:43:28;3.38;;;1.55;;
20734;SDS011;10528;52.124;5.196;2022-12-31T12:45:59;3.45;;;1.40;;
20734;SDS011;10528;52.124;5.196;2022-12-31T12:48:40;4.43;;;1.60;;
20734;SDS011;10528;52.124;5.196;2022-12-31T12:57:49;7.70;;;1.58;;
20734;SDS011;10528;52.124;5.196;2022-12-31T13:00:55;3.35;;;1.42;;
20734;SDS011;10528;52.124;5.196;2022-12-31T13:03:56;3.55;;;1.50;;
20734;SDS011;10528;52.124;5.196;2022-12-31T13:12:45;14.48;;;10.18;;
20734;SDS011;10528;52.124;5.196;2022-12-31T13:21:41;3.92;;;2.10;;
20734;SDS011;10528;52.124;5.196;2022-12-31T13:24:56;4.10;;;1.50;;
20734;SDS011;10528;52.124;5.196;2022-12-31T13:27:56;8.77;;;2.88;;
20734;SDS011;10528;52.124;5.196;2022-12-31T13:30:36;6.57;;;1.98;;
20734;SDS011;10528;52.124;5.196;2022-12-31T13:33:14;11.20;;;4.80;;
20734;SDS011;10528;52.124;5.196;2022-12-31T13:35:45;4.45;;;1.70;;
20734;SDS011;10528;52.124;5.196;2022-12-31T13:38:22;5.40;;;2.00;;
20734;SDS011;10528;52.124;5.196;2022-12-31T13:41:01;6.28;;;2.00;;
20734;SDS011;10528;52.124;5.196;2022-12-31T13:55:00;5.05;;;1.50;;
20734;SDS011;10528;52.124;5.196;2022-12-31T13:57:47;6.75;;;1.67;;
20734;SDS011;10528;52.124;5.196;2022-12-31T14:00:25;4.55;;;1.42;;
20734;SDS011;10528;52.124;5.196;2022-12-31T14:03:11;3.72;;;1.42;;
20734;SDS011;10528;52.124;5.196;2022-12-31T14:08:40;5.00;;;1.52;;
20734;SDS011;10528;52.124;5.196;2022-12-31T14:17:12;4.72;;;1.58;;
20734;SDS011;10528;52.124;5.196;2022-12-31T14:19:55;4.22;;;1.55;;
20734;SDS011;10528;52.124;5.196;2022-12-31T14:23:08;6.13;;;1.35;;
20734;SDS011;10528;52.124;5.196;2022-12-31T14:26:03;6.60;;;2.08;;
20734;SDS011;10528;52.124;5.196;2022-12-31T14:48:35;6.10;;;2.00;;
20734;SDS011;10528;52.124;5.196;2022-12-31T14:51:39;8.35;;;2.60;;
20734;SDS011;10528;52.124;5.196;2022-12-31T14:54:24;9.32;;;2.47;;
20734;SDS011;10528;52.124;5.196;2022-12-31T14:57:08;6.18;;;2.05;;
20734;SDS011;10528;52.124;5.196;2022-12-31T14:59:58;15.85;;;2.40;;
20734;SDS011;10528;52.124;5.196;2022-12-31T15:02:50;8.38;;;2.50;;
20734;SDS011;10528;52.124;5.196;2022-12-31T15:05:33;4.50;;;2.10;;
20734;SDS011;10528;52.124;5.196;2022-12-31T15:14:14;8.98;;;2.50;;
20734;SDS011;10528;52.124;5.196;2022-12-31T15:16:54;10.93;;;3.42;;
20734;SDS011;10528;52.124;5.196;2022-12-31T15:19:53;8.90;;;3.22;;
20734;SDS011;10528;52.124;5.196;2022-12-31T15:22:51;9.80;;;4.05;;
20734;SDS011;10528;52.124;5.196;2022-12-31T15:25:21;31.75;;;22.90;;
20734;SDS011;10528;52.124;5.196;2022-12-31T15:27:52;11.63;;;6.78;;
20734;SDS011;10528;52.124;5.196;2022-12-31T15:30:36;13.27;;;6.03;;
20734;SDS011;10528;52.124;5.196;2022-12-31T15:36:13;9.35;;;3.38;;
20734;SDS011;10528;52.124;5.196;2022-12-31T15:38:46;11.43;;;3.92;;
20734;SDS011;10528;52.124;5.196;2022-12-31T15:44:28;12.30;;;3.95;;
20734;SDS011;10528;52.124;5.196;2022-12-31T15:49:58;14.55;;;4.28;;
20734;SDS011;10528;52.124;5.196;2022-12-31T15:52:40;11.82;;;4.90;;
20734;SDS011;10528;52.124;5.196;2022-12-31T15:55:18;7.95;;;3.80;;
20734;SDS011;10528;52.124;5.196;2022-12-31T15:57:50;9.52;;;3.22;;
20734;SDS011;10528;52.124;5.196;2022-12-31T16:00:25;7.93;;;3.40;;
20734;SDS011;10528;52.124;5.196;2022-12-31T16:03:29;6.45;;;2.97;;
20734;SDS011;10528;52.124;5.196;2022-12-31T16:05:59;9.02;;;3.72;;
20734;SDS011;10528;52.124;5.196;2022-12-31T16:08:33;11.80;;;3.45;;
20734;SDS011;10528;52.124;5.196;2022-12-31T16:11:02;11.23;;;3.58;;
20734;SDS011;10528;52.124;5.196;2022-12-31T16:13:33;11.75;;;3.70;;
20734;SDS011;10528;52.124;5.196;2022-12-31T16:16:22;7.03;;;3.20;;
20734;SDS011;10528;52.124;5.196;2022-12-31T16:18:56;9.93;;;4.10;;
20734;SDS011;10528;52.124;5.196;2022-12-31T16:26:48;14.18;;;5.32;;
20734;SDS011;10528;52.124;5.196;2022-12-31T16:29:20;12.63;;;3.78;;
20734;SDS011;10528;52.124;5.196;2022-12-31T16:31:49;9.27;;;3.40;;
20734;SDS011;10528;52.124;5.196;2022-12-31T16:34:20;10.50;;;3.55;;
20734;SDS011;10528;52.124;5.196;2022-12-31T16:36:53;8.40;;;3.50;;
20734;SDS011;10528;52.124;5.196;2022-12-31T16:39:28;9.88;;;4.00;;
20734;SDS011;10528;52.124;5.196;2022-12-31T16:42:24;10.70;;;4.18;;
20734;SDS011;10528;52.124;5.196;2022-12-31T16:44:52;7.88;;;3.85;;
20734;SDS011;10528;52.124;5.196;2022-12-31T16:47:23;9.43;;;4.40;;
20734;SDS011;10528;52.124;5.196;2022-12-31T16:50:05;9.82;;;3.55;;
20734;SDS011;10528;52.124;5.196;2022-12-31T16:52:41;11.68;;;4.03;;
20734;SDS011;10528;52.124;5.196;2022-12-31T16:55:18;10.40;;;4.22;;
20734;SDS011;10528;52.124;5.196;2022-12-31T16:57:52;14.38;;;4.50;;
20734;SDS011;10528;52.124;5.196;2022-12-31T17:00:24;8.95;;;3.30;;
20734;SDS011;10528;52.124;5.196;2022-12-31T17:03:10;8.98;;;4.00;;
20734;SDS011;10528;52.124;5.196;2022-12-31T17:08:39;12.82;;;5.00;;
20734;SDS011;10528;52.124;5.196;2022-12-31T17:17:27;13.10;;;4.35;;
20734;SDS011;10528;52.124;5.196;2022-12-31T17:19:39;12.23;;;5.50;;
20734;SDS011;10528;52.124;5.196;2022-12-31T17:22:21;39.25;;;32.53;;
20734;SDS011;10528;52.124;5.196;2022-12-31T17:27:33;15.98;;;7.38;;
20734;SDS011;10528;52.124;5.196;2022-12-31T17:30:17;12.73;;;6.05;;
20734;SDS011;10528;52.124;5.196;2022-12-31T17:32:58;14.18;;;8.13;;
20734;SDS011;10528;52.124;5.196;2022-12-31T17:35:48;10.77;;;6.03;;
20734;SDS011;10528;52.124;5.196;2022-12-31T17:38:38;8.65;;;4.82;;
20734;SDS011;10528;52.124;5.196;2022-12-31T17:43:33;10.50;;;5.18;;
20734;SDS011;10528;52.124;5.196;2022-12-31T17:46:09;18.55;;;5.03;;
20734;SDS011;10528;52.124;5.196;2022-12-31T17:48:42;8.43;;;4.75;;
20734;SDS011;10528;52.124;5.196;2022-12-31T17:51:14;11.60;;;5.65;;
20734;SDS011;10528;52.124;5.196;2022-12-31T17:53:49;13.65;;;7.28;;
20734;SDS011;10528;52.124;5.196;2022-12-31T17:56:16;17.73;;;8.32;;
20734;SDS011;10528;52.124;5.196;2022-12-31T17:58:46;10.20;;;6.25;;
20734;SDS011;10528;52.124;5.196;2022-12-31T18:01:18;13.65;;;7.10;;
20734;SDS011;10528;52.124;5.196;2022-12-31T18:03:48;13.88;;;6.15;;
20734;SDS011;10528;52.124;5.196;2022-12-31T18:06:15;12.18;;;7.15;;
20734;SDS011;10528;52.124;5.196;2022-12-31T18:08:44;9.18;;;4.35;;
20734;SDS011;10528;52.124;5.196;2022-12-31T18:11:14;10.20;;;5.25;;
20734;SDS011;10528;52.124;5.196;2022-12-31T18:13:43;14.15;;;5.18;;
20734;SDS011;10528;52.124;5.196;2022-12-31T18:16:11;10.38;;;4.68;;
20734;SDS011;10528;52.124;5.196;2022-12-31T18:18:38;11.20;;;5.20;;
20734;SDS011;10528;52.124;5.196;2022-12-31T18:21:10;9.77;;;5.30;;
20734;SDS011;10528;52.124;5.196;2022-12-31T18:23:45;13.10;;;4.53;;
20734;SDS011;10528;52.124;5.196;2022-12-31T18:26:18;10.98;;;4.97;;
20734;SDS011;10528;52.124;5.196;2022-12-31T18:28:48;9.85;;;5.00;;
20734;SDS011;10528;52.124;5.196;2022-12-31T18:33:56;10.90;;;5.28;;
20734;SDS011;10528;52.124;5.196;2022-12-31T18:36:27;9.63;;;4.95;;
20734;SDS011;10528;52.124;5.196;2022-12-31T18:38:54;13.02;;;5.28;;
20734;SDS011;10528;52.124;5.196;2022-12-31T18:41:22;13.93;;;5.40;;
20734;SDS011;10528;52.124;5.196;2022-12-31T18:43:53;9.63;;;4.88;;
20734;SDS011;10528;52.124;5.196;2022-12-31T18:46:22;12.18;;;4.50;;
20734;SDS011;10528;52.124;5.196;2022-12-31T18:48:50;10.93;;;4.40;;
20734;SDS011;10528;52.124;5.196;2022-12-31T18:51:20;9.05;;;4.45;;
20734;SDS011;10528;52.124;5.196;2022-12-31T18:53:56;37.70;;;26.75;;
20734;SDS011;10528;52.124;5.196;2022-12-31T18:56:24;13.80;;;7.43;;
20734;SDS011;10528;52.124;5.196;2022-12-31T18:58:51;22.05;;;11.65;;
20734;SDS011;10528;52.124;5.196;2022-12-31T19:01:32;12.38;;;5.22;;
20734;SDS011;10528;52.124;5.196;2022-12-31T19:04:03;21.77;;;12.95;;
20734;SDS011;10528;52.124;5.196;2022-12-31T19:06:50;13.65;;;6.25;;
20734;SDS011;10528;52.124;5.196;2022-12-31T19:09:16;32.03;;;22.23;;
20734;SDS011;10528;52.124;5.196;2022-12-31T19:12:03;12.27;;;6.00;;
20734;SDS011;10528;52.124;5.196;2022-12-31T19:14:31;10.68;;;4.75;;
20734;SDS011;10528;52.124;5.196;2022-12-31T19:16:58;16.92;;;7.25;;
20734;SDS011;10528;52.124;5.196;2022-12-31T19:19:24;8.68;;;4.40;;
20734;SDS011;10528;52.124;5.196;2022-12-31T19:21:51;10.48;;;4.95;;
20734;SDS011;10528;52.124;5.196;2022-12-31T19:24:22;11.55;;;4.90;;
20734;SDS011;10528;52.124;5.196;2022-12-31T19:26:52;13.75;;;6.65;;
20734;SDS011;10528;52.124;5.196;2022-12-31T19:29:20;13.40;;;5.80;;
20734;SDS011;10528;52.124;5.196;2022-12-31T19:31:51;14.48;;;6.82;;
20734;SDS011;10528;52.124;5.196;2022-12-31T19:34:19;23.00;;;10.45;;
20734;SDS011;10528;52.124;5.196;2022-12-31T19:36:46;15.25;;;5.60;;
20734;SDS011;10528;52.124;5.196;2022-12-31T19:39:14;13.90;;;5.45;;
20734;SDS011;10528;52.124;5.196;2022-12-31T19:41:44;14.60;;;9.25;;
20734;SDS011;10528;52.124;5.196;2022-12-31T19:44:23;20.58;;;18.38;;